createdAt,value
2019-02-04T00:00:24.311Z,17.57
2019-02-04T00:02:52.630Z,16.95
2019-02-04T00:05:20.901Z,16.87
2019-02-04T00:07:49.183Z,15.90
2019-02-04T00:10:17.450Z,17.57
2019-02-04T00:12:45.748Z,17.42
2019-02-04T00:15:14.011Z,16.53
2019-02-04T00:17:42.279Z,15.23
2019-02-04T00:20:11.509Z,16.70
2019-02-04T00:22:39.832Z,16.15
2019-02-04T00:25:08.286Z,15.48
2019-02-04T00:27:36.621Z,16.45
2019-02-04T00:30:08.177Z,15.88
2019-02-04T00:32:36.449Z,16.12
2019-02-04T00:35:05.718Z,16.57
2019-02-04T00:37:33.961Z,16.07
2019-02-04T00:40:02.273Z,15.15
2019-02-04T00:42:30.581Z,15.33
2019-02-04T00:44:58.850Z,15.13
2019-02-04T00:47:27.133Z,14.95
2019-02-04T00:49:55.434Z,16.10
2019-02-04T00:52:24.149Z,15.54
2019-02-04T00:54:52.439Z,15.58
2019-02-04T00:57:20.776Z,16.00
2019-02-04T00:59:49.088Z,16.23
2019-02-04T01:02:17.936Z,16.90
2019-02-04T01:04:46.188Z,16.17
2019-02-04T01:07:14.497Z,16.97
2019-02-04T01:09:42.779Z,16.62
2019-02-04T01:12:11.161Z,16.40
2019-02-04T01:14:39.592Z,17.00
2019-02-04T01:17:08.130Z,15.90
2019-02-04T01:19:36.427Z,16.48
2019-02-04T01:22:04.710Z,16.97
2019-02-04T01:24:32.980Z,16.10
2019-02-04T01:27:01.285Z,17.67
2019-02-04T01:29:29.556Z,17.50
2019-02-04T01:31:57.819Z,16.50
2019-02-04T01:34:26.186Z,15.20
2019-02-04T01:36:54.461Z,16.75
2019-02-04T01:39:22.705Z,17.98
2019-02-04T01:41:50.982Z,17.07
2019-02-04T01:44:19.358Z,17.43
2019-02-04T01:46:47.619Z,18.55
2019-02-04T01:49:15.913Z,17.63
2019-02-04T01:51:44.173Z,17.25
2019-02-04T01:54:12.460Z,17.50
2019-02-04T01:56:40.734Z,16.20
2019-02-04T01:59:09.026Z,17.95
2019-02-04T02:01:37.328Z,17.98
2019-02-04T02:04:05.758Z,18.98
2019-02-04T02:06:34.040Z,20.03
2019-02-04T02:09:04.102Z,19.10
2019-02-04T02:11:32.579Z,20.45
2019-02-04T02:14:00.862Z,21.10
2019-02-04T02:16:29.120Z,19.67
2019-02-04T02:18:57.478Z,19.75
2019-02-04T02:21:25.787Z,19.35
2019-02-04T02:23:54.063Z,18.40
2019-02-04T02:26:22.340Z,19.00
2019-02-04T02:28:50.640Z,19.07
2019-02-04T02:31:18.957Z,18.87
2019-02-04T02:33:47.604Z,16.93
2019-02-04T02:36:15.883Z,17.37
2019-02-04T02:38:44.143Z,17.45
2019-02-04T02:41:12.393Z,17.48
2019-02-04T02:43:40.857Z,17.48
2019-02-04T02:46:09.134Z,16.82
2019-02-04T02:48:37.507Z,17.03
2019-02-04T02:51:05.768Z,17.00
2019-02-04T02:53:34.057Z,18.02
2019-02-04T02:56:02.349Z,16.80
2019-02-04T02:58:30.614Z,16.70
2019-02-04T03:00:58.997Z,17.40
2019-02-04T03:03:27.250Z,18.23
2019-02-04T03:05:55.913Z,19.37
2019-02-04T03:08:24.834Z,18.55
2019-02-04T03:10:53.112Z,18.52
2019-02-04T03:13:21.366Z,19.20
2019-02-04T03:15:49.730Z,17.30
2019-02-04T03:18:18.033Z,18.05
2019-02-04T03:20:46.496Z,17.82
2019-02-04T03:23:14.762Z,18.23
2019-02-04T03:25:43.048Z,19.20
2019-02-04T03:28:11.314Z,19.17
2019-02-04T03:30:39.600Z,19.07
2019-02-04T03:33:07.874Z,19.50
2019-02-04T03:35:36.176Z,19.73
2019-02-04T03:38:04.422Z,17.45
2019-02-04T03:40:32.946Z,18.53
2019-02-04T03:43:01.253Z,18.52
2019-02-04T03:45:29.559Z,20.95
2019-02-04T03:48:06.336Z,21.23
2019-02-04T03:50:27.818Z,21.27
2019-02-04T03:52:56.099Z,22.22
2019-02-04T03:55:24.341Z,22.62
2019-02-04T03:57:52.606Z,20.00
2019-02-04T04:00:32.256Z,20.50
2019-02-04T04:03:00.625Z,21.15
2019-02-04T04:05:29.055Z,20.57
2019-02-04T04:07:57.358Z,19.92
2019-02-04T04:10:25.629Z,18.62
2019-02-04T04:12:53.888Z,17.98
2019-02-04T04:15:22.750Z,19.07
2019-02-04T04:17:51.007Z,19.80
2019-02-04T04:20:20.406Z,20.37
2019-02-04T04:22:48.678Z,21.87
2019-02-04T04:25:19.701Z,21.37
2019-02-04T04:27:48.348Z,22.73
2019-02-04T04:30:28.431Z,22.73
2019-02-04T04:32:56.990Z,22.80
2019-02-04T04:35:25.287Z,22.90
2019-02-04T04:37:53.617Z,22.90
2019-02-04T04:40:21.881Z,22.67
2019-02-04T04:42:50.176Z,23.02
2019-02-04T04:45:20.935Z,22.17
2019-02-04T04:47:49.751Z,22.60
2019-02-04T04:50:18.013Z,22.73
2019-02-04T04:52:46.385Z,22.20
2019-02-04T04:55:17.311Z,22.30
2019-02-04T04:57:45.580Z,22.75
2019-02-04T05:00:16.390Z,22.30
2019-02-04T05:02:44.827Z,22.65
2019-02-04T05:05:14.160Z,23.73
2019-02-04T05:07:42.500Z,24.25
2019-02-04T05:10:13.780Z,23.40
2019-02-04T05:12:42.032Z,23.63
2019-02-04T05:15:13.346Z,24.63
2019-02-04T05:17:41.608Z,23.77
2019-02-04T05:20:12.596Z,24.15
2019-02-04T05:22:40.861Z,23.27
2019-02-04T05:25:09.354Z,22.40
2019-02-04T05:27:37.825Z,21.87
2019-02-04T05:30:14.683Z,22.42
2019-02-04T05:32:42.984Z,23.05
2019-02-04T05:35:11.445Z,22.37
2019-02-04T05:37:39.710Z,23.15
2019-02-04T05:40:10.736Z,23.10
2019-02-04T05:42:39.025Z,22.47
2019-02-04T05:45:09.990Z,21.65
2019-02-04T05:47:38.285Z,22.00
2019-02-04T05:50:09.718Z,22.80
2019-02-04T05:52:38.000Z,21.93
2019-02-04T05:55:07.095Z,22.65
2019-02-04T05:57:35.520Z,22.22
2019-02-04T06:00:06.789Z,22.98
2019-02-04T06:02:35.059Z,21.40
2019-02-04T06:05:03.783Z,21.50
2019-02-04T06:07:32.064Z,22.70
2019-02-04T06:10:00.365Z,21.85
2019-02-04T06:12:28.604Z,21.80
2019-02-04T06:14:56.882Z,22.30
2019-02-04T06:17:25.138Z,23.20
2019-02-04T06:19:53.438Z,23.65
2019-02-04T06:22:21.749Z,24.43
2019-02-04T06:24:50.331Z,22.80
2019-02-04T06:27:18.596Z,23.18
2019-02-04T06:29:47.282Z,22.85
2019-02-04T06:32:15.536Z,20.68
2019-02-04T06:34:43.814Z,23.92
2019-02-04T06:37:12.118Z,22.70
2019-02-04T06:39:40.639Z,22.30
2019-02-04T06:42:08.898Z,21.00
2019-02-04T06:44:37.467Z,23.10
2019-02-04T06:47:05.776Z,23.40
2019-02-04T06:49:34.021Z,22.00
2019-02-04T06:52:02.531Z,20.97
2019-02-04T06:54:30.774Z,21.37
2019-02-04T06:56:59.314Z,21.27
2019-02-04T06:59:27.596Z,20.50
2019-02-04T07:01:57.719Z,22.02
2019-02-04T07:04:25.891Z,18.47
2019-02-04T07:06:54.341Z,20.45
2019-02-04T07:09:22.616Z,19.50
2019-02-04T07:11:50.923Z,19.55
2019-02-04T07:14:19.198Z,19.90
2019-02-04T07:16:47.854Z,20.80
2019-02-04T07:19:23.678Z,19.00
2019-02-04T07:21:46.149Z,21.25
2019-02-04T07:24:14.467Z,19.00
2019-02-04T07:26:42.758Z,19.27
2019-02-04T07:29:11.014Z,18.65
2019-02-04T07:31:39.294Z,18.80
2019-02-04T07:34:07.561Z,18.02
2019-02-04T07:36:35.856Z,17.77
2019-02-04T07:39:06.228Z,17.98
2019-02-04T07:41:34.509Z,17.15
2019-02-04T07:44:02.845Z,17.98
2019-02-04T07:46:31.132Z,18.17
2019-02-04T07:48:59.667Z,16.23
2019-02-04T07:51:27.981Z,17.45
2019-02-04T07:53:56.229Z,17.25
2019-02-04T07:56:25.431Z,16.10
2019-02-04T07:58:53.725Z,15.67
2019-02-04T08:01:22.178Z,16.20
2019-02-04T08:03:50.819Z,16.48
2019-02-04T08:06:19.344Z,15.85
2019-02-04T08:08:47.602Z,15.48
2019-02-04T08:11:15.864Z,15.50
2019-02-04T08:13:44.147Z,13.70
2019-02-04T08:16:12.397Z,14.68
2019-02-04T08:18:40.751Z,15.50
2019-02-04T08:21:09.104Z,14.25
2019-02-04T08:23:37.427Z,13.50
2019-02-04T08:26:05.690Z,13.40
2019-02-04T08:28:33.973Z,13.40
2019-02-04T08:31:02.240Z,14.00
2019-02-04T08:33:30.582Z,13.20
2019-02-04T08:35:59.207Z,14.70
2019-02-04T08:38:27.489Z,13.18
2019-02-04T08:40:55.753Z,14.30
2019-02-04T08:43:24.096Z,12.50
2019-02-04T08:45:52.399Z,12.90
2019-02-04T08:48:20.747Z,13.03
2019-02-04T08:50:49.003Z,13.32
2019-02-04T08:53:17.742Z,12.43
2019-02-04T08:55:46.018Z,11.97
2019-02-04T08:58:14.266Z,12.07
2019-02-04T09:00:42.704Z,11.43
2019-02-04T09:03:11.025Z,11.80
2019-02-04T09:05:39.323Z,11.08
2019-02-04T09:08:07.702Z,10.68
2019-02-04T09:10:36.232Z,11.60
2019-02-04T09:13:04.508Z,11.40
2019-02-04T09:15:32.758Z,11.55
2019-02-04T09:18:01.276Z,11.60
2019-02-04T09:20:29.524Z,11.35
2019-02-04T09:22:57.776Z,10.55
2019-02-04T09:25:27.000Z,10.70
2019-02-04T09:27:56.728Z,10.35
2019-02-04T09:30:27.551Z,10.23
2019-02-04T09:32:57.275Z,10.20
2019-02-04T09:35:25.549Z,10.65
2019-02-04T09:37:54.132Z,10.40
2019-02-04T09:40:30.637Z,10.58
2019-02-04T09:42:58.897Z,9.97
2019-02-04T09:45:27.869Z,10.28
2019-02-04T09:47:56.486Z,10.03
2019-02-04T09:50:32.545Z,10.62
2019-02-04T09:53:00.867Z,8.80
2019-02-04T09:55:32.367Z,9.43
2019-02-04T09:58:00.646Z,10.10
2019-02-04T10:00:30.976Z,9.78
2019-02-04T10:02:59.216Z,9.13
2019-02-04T10:05:27.552Z,9.75
2019-02-04T10:07:55.796Z,9.08
2019-02-04T10:10:26.204Z,9.10
2019-02-04T10:12:54.473Z,9.85
2019-02-04T10:15:28.947Z,9.05
2019-02-04T10:17:57.268Z,8.60
2019-02-04T10:20:33.307Z,8.83
2019-02-04T10:22:55.937Z,9.00
2019-02-04T10:25:27.257Z,9.38
2019-02-04T10:27:55.499Z,9.85
2019-02-04T10:30:24.588Z,9.45
2019-02-04T10:32:52.897Z,8.40
2019-02-04T10:35:21.480Z,9.00
2019-02-04T10:37:51.132Z,8.50
2019-02-04T10:40:25.607Z,8.65
2019-02-04T10:45:21.796Z,8.88
2019-02-04T10:47:50.714Z,8.80
2019-02-04T10:50:30.589Z,8.00
2019-02-04T10:52:58.970Z,8.10
2019-02-04T10:55:27.331Z,7.70
2019-02-04T10:57:55.847Z,6.37
2019-02-04T11:00:34.727Z,8.95
2019-02-04T11:03:03.400Z,7.97
2019-02-04T11:05:34.379Z,8.33
2019-02-04T11:08:02.634Z,8.13
2019-02-04T11:10:35.566Z,8.43
2019-02-04T11:13:06.757Z,8.88
2019-02-04T11:15:35.006Z,9.25
2019-02-04T11:18:03.326Z,9.43
2019-02-04T11:20:32.953Z,8.28
2019-02-04T11:23:01.308Z,8.83
2019-02-04T11:25:29.668Z,8.53
2019-02-04T11:27:57.986Z,8.43
2019-02-04T11:30:31.852Z,9.13
2019-02-04T11:33:00.160Z,8.33
2019-02-04T11:35:28.453Z,9.38
2019-02-04T11:37:56.718Z,8.75
2019-02-04T11:40:34.042Z,9.76
2019-02-04T11:43:02.299Z,9.33
2019-02-04T11:45:31.035Z,8.78
2019-02-04T11:47:59.472Z,9.58
2019-02-04T11:50:27.812Z,8.93
2019-02-04T11:52:56.126Z,9.15
2019-02-04T11:55:24.477Z,8.45
2019-02-04T11:57:52.870Z,9.00
2019-02-04T12:00:27.091Z,7.92
2019-02-04T12:02:55.975Z,8.40
2019-02-04T12:05:24.400Z,7.67
2019-02-04T12:07:53.219Z,7.62
2019-02-04T12:10:27.595Z,7.83
2019-02-04T12:12:55.942Z,7.10
2019-02-04T12:15:24.187Z,5.80
2019-02-04T12:17:52.467Z,7.92
2019-02-04T12:20:20.718Z,6.97
2019-02-04T12:22:49.415Z,7.20
2019-02-04T12:25:25.970Z,7.33
2019-02-04T12:27:54.832Z,8.18
2019-02-04T12:30:26.367Z,7.12
2019-02-04T12:32:55.022Z,8.57
2019-02-04T12:35:23.269Z,7.70
2019-02-04T12:37:51.578Z,7.78
2019-02-04T12:40:19.824Z,7.97
2019-02-04T12:42:48.455Z,7.15
2019-02-04T12:45:22.547Z,7.22
2019-02-04T12:50:18.628Z,7.67
2019-02-04T12:52:46.902Z,6.78
2019-02-04T12:55:21.011Z,7.70
2019-02-04T12:57:49.542Z,7.17
2019-02-04T13:00:22.098Z,7.20
2019-02-04T13:02:50.440Z,6.45
2019-02-04T13:05:30.799Z,7.87
2019-02-04T13:07:59.359Z,8.18
2019-02-04T13:10:27.641Z,8.13
2019-02-04T13:12:55.881Z,5.47
2019-02-04T13:15:24.843Z,7.70
2019-02-04T13:17:53.583Z,7.50
2019-02-04T13:20:23.114Z,8.20
2019-02-04T13:22:51.560Z,6.97
2019-02-04T13:25:22.983Z,7.72
2019-02-04T13:27:51.274Z,7.75
2019-02-04T13:30:22.181Z,7.65
2019-02-04T13:32:50.434Z,7.67
2019-02-04T13:35:18.712Z,7.62
2019-02-04T13:37:46.997Z,7.92
2019-02-04T13:40:18.012Z,7.28
2019-02-04T13:42:46.310Z,7.80
2019-02-04T13:45:16.981Z,8.60
2019-02-04T13:47:45.263Z,8.00
2019-02-04T13:50:15.541Z,8.45
2019-02-04T13:52:44.350Z,8.20
2019-02-04T13:55:15.856Z,7.75
2019-02-04T13:57:44.171Z,7.58
2019-02-04T14:00:14.132Z,8.48
2019-02-04T14:02:42.390Z,7.92
2019-02-04T14:05:11.513Z,9.13
2019-02-04T14:07:39.939Z,8.90
2019-02-04T14:10:23.565Z,8.68
2019-02-04T14:12:52.018Z,7.60
2019-02-04T14:15:20.296Z,7.33
2019-02-04T14:17:48.540Z,7.55
2019-02-04T14:20:20.459Z,7.35
2019-02-04T14:22:48.878Z,7.05
2019-02-04T14:25:17.359Z,7.17
2019-02-04T14:27:45.642Z,7.97
2019-02-04T14:30:25.645Z,7.97
2019-02-04T14:32:53.888Z,8.13
2019-02-04T14:35:22.168Z,7.40
2019-02-04T14:37:50.414Z,6.22
2019-02-04T14:40:19.138Z,7.15
2019-02-04T14:42:50.812Z,7.35
2019-02-04T14:45:28.207Z,7.25
2019-02-04T14:48:26.380Z,7.72
2019-02-04T14:50:57.913Z,7.62
2019-02-04T14:53:32.600Z,7.17
2019-02-04T14:56:06.920Z,7.10
2019-02-04T14:58:44.778Z,7.23
2019-02-04T15:01:16.343Z,7.55
2019-02-04T15:03:53.930Z,7.20
2019-02-04T15:06:51.465Z,7.28
2019-02-04T15:09:35.277Z,7.28
2019-02-04T15:12:23.496Z,7.13
2019-02-04T15:15:04.009Z,7.62
2019-02-04T15:17:33.338Z,7.35
2019-02-04T15:20:13.825Z,6.97
2019-02-04T15:22:54.185Z,7.28
2019-02-04T15:25:28.414Z,6.47
2019-02-04T15:28:12.165Z,7.53
2019-02-04T15:30:49.608Z,5.67
2019-02-04T15:33:21.598Z,6.70
2019-02-04T15:36:07.880Z,6.95
2019-02-04T15:38:39.748Z,7.60
2019-02-04T15:41:17.280Z,6.55
2019-02-04T15:44:11.545Z,7.25
2019-02-04T15:46:48.609Z,6.23
2019-02-04T15:49:29.768Z,7.30
2019-02-04T15:51:58.489Z,7.80
2019-02-04T15:54:26.856Z,8.98
2019-02-04T15:56:55.383Z,7.55
2019-02-04T15:59:23.633Z,8.33
2019-02-04T16:01:52.290Z,6.83
2019-02-04T16:04:34.237Z,7.53
2019-02-04T16:07:03.439Z,7.30
2019-02-04T16:09:31.687Z,7.20
2019-02-04T16:11:59.926Z,7.78
2019-02-04T16:14:28.603Z,6.95
2019-02-04T16:16:56.847Z,7.10
2019-02-04T16:19:25.126Z,7.28
2019-02-04T16:21:53.467Z,6.75
2019-02-04T16:24:22.666Z,7.30
2019-02-04T16:26:51.104Z,6.80
2019-02-04T16:29:19.361Z,7.50
2019-02-04T16:31:47.942Z,7.50
2019-02-04T16:34:16.185Z,7.28
2019-02-04T16:36:44.459Z,7.80
2019-02-04T16:39:12.722Z,6.80
2019-02-04T16:41:40.971Z,6.40
2019-02-04T16:44:09.323Z,5.90
2019-02-04T16:46:37.570Z,6.93
2019-02-04T16:49:05.814Z,8.13
2019-02-04T16:51:34.095Z,8.03
2019-02-04T16:54:02.570Z,6.80
2019-02-04T16:56:30.826Z,6.17
2019-02-04T16:58:59.252Z,6.80
2019-02-04T17:01:27.527Z,6.97
2019-02-04T17:03:56.142Z,6.47
2019-02-04T17:06:24.389Z,6.50
2019-02-04T17:08:52.713Z,7.47
2019-02-04T17:11:20.961Z,6.75
2019-02-04T17:13:49.236Z,6.53
2019-02-04T17:16:17.549Z,6.43
2019-02-04T17:18:45.841Z,6.40
2019-02-04T17:21:14.087Z,6.03
2019-02-04T17:23:42.421Z,5.80
2019-02-04T17:26:10.700Z,6.30
2019-02-04T17:28:39.084Z,6.30
2019-02-04T17:31:07.329Z,5.75
2019-02-04T17:33:35.626Z,5.72
2019-02-04T17:36:04.337Z,6.15
2019-02-04T17:38:32.611Z,5.63
2019-02-04T17:41:00.983Z,5.65
2019-02-04T17:43:29.218Z,5.83
2019-02-04T17:45:57.576Z,4.78
2019-02-04T17:48:26.823Z,5.76
2019-02-04T17:50:55.331Z,4.65
2019-02-04T17:53:33.944Z,5.95
2019-02-04T17:55:53.880Z,5.35
2019-02-04T17:58:22.154Z,5.62
2019-02-04T18:00:51.566Z,6.10
2019-02-04T18:03:19.810Z,5.30
2019-02-04T18:05:48.072Z,5.65
2019-02-04T18:08:16.511Z,5.70
2019-02-04T18:10:44.743Z,5.08
2019-02-04T18:13:13.027Z,5.08
2019-02-04T18:15:41.277Z,5.35
2019-02-04T18:18:09.536Z,5.00
2019-02-04T18:20:37.821Z,6.28
2019-02-04T18:23:06.474Z,4.28
2019-02-04T18:25:34.706Z,6.08
2019-02-04T18:28:03.261Z,5.10
2019-02-04T18:30:31.981Z,5.58
2019-02-04T18:33:00.304Z,5.78
2019-02-04T18:35:29.020Z,5.95
2019-02-04T18:37:57.309Z,5.20
2019-02-04T18:40:25.701Z,4.87
2019-02-04T18:42:54.324Z,3.97
2019-02-04T18:45:31.119Z,5.00
2019-02-04T18:47:59.443Z,4.78
2019-02-04T18:50:28.097Z,4.28
2019-02-04T18:52:56.342Z,4.47
2019-02-04T18:55:29.865Z,4.03
2019-02-04T18:57:58.138Z,4.60
2019-02-04T19:00:28.902Z,4.33
2019-02-04T19:02:57.490Z,5.08
2019-02-04T19:05:26.824Z,4.92
2019-02-04T19:07:55.315Z,4.20
2019-02-04T19:10:24.056Z,4.45
2019-02-04T19:12:52.298Z,4.30
2019-02-04T19:15:28.481Z,3.87
2019-02-04T19:18:06.319Z,4.10
2019-02-04T19:20:34.604Z,4.30
2019-02-04T19:23:02.848Z,4.45
2019-02-04T19:25:31.295Z,4.33
2019-02-04T19:27:59.544Z,4.45
2019-02-04T19:30:33.919Z,4.58
2019-02-04T19:35:29.954Z,5.22
2019-02-04T19:37:58.213Z,4.87
2019-02-04T19:40:26.973Z,4.20
2019-02-04T19:42:55.246Z,4.70
2019-02-04T19:45:26.034Z,4.80
2019-02-04T19:47:54.618Z,5.37
2019-02-04T19:50:34.061Z,4.83
2019-02-04T19:53:02.342Z,4.97
2019-02-04T19:55:30.578Z,5.87
2019-02-04T19:57:58.863Z,5.72
2019-02-04T20:00:27.869Z,4.85
2019-02-04T20:02:56.123Z,4.97
2019-02-04T20:05:28.876Z,5.00
2019-02-04T20:07:57.107Z,5.60
2019-02-04T20:10:32.376Z,5.90
2019-02-04T20:13:00.686Z,6.30
2019-02-04T20:15:30.790Z,6.08
2019-02-04T20:17:59.023Z,5.53
2019-02-04T20:20:27.506Z,4.90
2019-02-04T20:22:56.248Z,5.50
2019-02-04T20:25:29.681Z,4.65
2019-02-04T20:27:58.000Z,5.25
2019-02-04T20:30:43.517Z,6.08
2019-02-04T20:33:01.994Z,6.15
2019-02-04T20:35:30.273Z,6.20
2019-02-04T20:37:58.608Z,5.80
2019-02-04T20:40:27.701Z,5.58
2019-02-04T20:42:55.959Z,6.12
2019-02-04T20:45:24.603Z,6.60
2019-02-04T20:47:53.019Z,6.20
2019-02-04T20:50:24.726Z,6.17
2019-02-04T20:52:53.187Z,6.25
2019-02-04T20:55:21.540Z,5.97
2019-02-04T20:57:49.832Z,6.35
2019-02-04T21:00:20.627Z,5.05
2019-02-04T21:02:48.877Z,5.28
2019-02-04T21:05:17.145Z,5.50
2019-02-04T21:07:45.422Z,6.05
2019-02-04T21:10:17.182Z,5.97
2019-02-04T21:12:45.432Z,5.33
2019-02-04T21:15:16.226Z,6.25
2019-02-04T21:17:44.721Z,5.90
2019-02-04T21:20:18.102Z,6.30
2019-02-04T21:25:14.467Z,5.47
2019-02-04T21:27:42.901Z,5.10
2019-02-04T21:30:20.373Z,6.40
2019-02-04T21:32:48.668Z,6.08
2019-02-04T21:35:16.914Z,5.50
2019-02-04T21:37:45.163Z,6.25
2019-02-04T21:40:17.868Z,6.58
2019-02-04T21:42:46.530Z,6.87
2019-02-04T21:45:20.207Z,6.80
2019-02-04T21:50:19.367Z,5.80
2019-02-04T21:52:47.645Z,6.50
2019-02-04T21:55:16.134Z,6.12
2019-02-04T21:57:44.812Z,6.17
2019-02-04T22:00:16.392Z,5.20
2019-02-04T22:02:44.715Z,7.17
2019-02-04T22:05:15.785Z,5.30
2019-02-04T22:07:44.038Z,6.33
2019-02-04T22:10:15.236Z,6.17
2019-02-04T22:12:43.583Z,5.37
2019-02-04T22:15:11.860Z,6.40
2019-02-04T22:17:40.141Z,6.62
2019-02-04T22:20:14.308Z,6.85
2019-02-04T22:22:42.586Z,6.53
2019-02-04T22:25:19.488Z,6.62
2019-02-04T22:27:42.694Z,6.60
2019-02-04T22:30:14.588Z,6.10
2019-02-04T22:32:43.102Z,6.22
2019-02-04T22:35:11.647Z,6.40
2019-02-04T22:37:39.920Z,6.35
2019-02-04T22:40:17.021Z,6.22
2019-02-04T22:42:45.282Z,6.13
2019-02-04T22:45:16.031Z,5.83
2019-02-04T22:47:44.291Z,5.03
2019-02-04T22:50:18.096Z,6.03
2019-02-04T22:52:46.388Z,6.15
2019-02-04T22:55:14.903Z,6.47
2019-02-04T22:57:43.145Z,6.33
2019-02-04T23:00:41.703Z,6.17
2019-02-04T23:03:10.628Z,5.08
2019-02-04T23:05:38.850Z,5.30
2019-02-04T23:08:07.252Z,6.62
2019-02-04T23:10:35.451Z,5.93
2019-02-04T23:13:03.688Z,6.17
2019-02-04T23:15:31.958Z,6.70
2019-02-04T23:18:00.249Z,6.50
2019-02-04T23:20:28.781Z,6.78
2019-02-04T23:22:57.030Z,6.50
2019-02-04T23:25:25.478Z,6.63
2019-02-04T23:27:53.764Z,6.65
2019-02-04T23:30:22.304Z,6.95
2019-02-04T23:32:50.519Z,6.60
2019-02-04T23:35:19.083Z,6.20
2019-02-04T23:37:47.365Z,6.50
2019-02-04T23:40:16.947Z,6.50
2019-02-04T23:42:45.348Z,5.90
2019-02-04T23:45:13.668Z,6.65
2019-02-04T23:47:41.910Z,6.70
2019-02-04T23:50:15.089Z,6.55
2019-02-04T23:52:43.334Z,6.37
2019-02-04T23:55:12.565Z,6.67
2019-02-04T23:57:40.993Z,6.83
